sensor_id;sensor_type;location;lat;lon;timestamp;P1;P2;P0
30342;PMS5003;17145;49.902;8.680;2023-03-23T00:00:31;28;26;
30342;PMS5003;17145;49.902;8.680;2023-03-23T00:02:59;28;25;
30342;PMS5003;17145;49.902;8.680;2023-03-23T00:05:27;32;27;
30342;PMS5003;17145;49.902;8.680;2023-03-23T00:07:54;24;22;
30342;PMS5003;17145;49.902;8.680;2023-03-23T00:10:22;22;21;
30342;PMS5003;17145;49.902;8.680;2023-03-23T00:12:49;23;21;
30342;PMS5003;17145;49.902;8.680;2023-03-23T00:15:16;21;18;
30342;PMS5003;17145;49.902;8.680;2023-03-23T00:17:44;27;20;
30342;PMS5003;17145;49.902;8.680;2023-03-23T00:20:11;34;25;
30342;PMS5003;17145;49.902;8.680;2023-03-23T00:22:39;31;24;
30342;PMS5003;17145;49.902;8.680;2023-03-23T00:25:07;23;22;
30342;PMS5003;17145;49.902;8.680;2023-03-23T00:27:34;16;16;
30342;PMS5003;17145;49.902;8.680;2023-03-23T00:30:02;21;20;
30342;PMS5003;17145;49.902;8.680;2023-03-23T00:32:30;23;19;
30342;PMS5003;17145;49.902;8.680;2023-03-23T00:34:57;31;20;
30342;PMS5003;17145;49.902;8.680;2023-03-23T00:37:25;20;19;
30342;PMS5003;17145;49.902;8.680;2023-03-23T00:39:53;31;25;
30342;PMS5003;17145;49.902;8.680;2023-03-23T00:42:20;19;19;
30342;PMS5003;17145;49.902;8.680;2023-03-23T00:44:48;17;15;
30342;PMS5003;17145;49.902;8.680;2023-03-23T00:47:15;19;18;
30342;PMS5003;17145;49.902;8.680;2023-03-23T00:49:43;22;20;
30342;PMS5003;17145;49.902;8.680;2023-03-23T00:52:11;27;17;
30342;PMS5003;17145;49.902;8.680;2023-03-23T00:54:38;14;14;
30342;PMS5003;17145;49.902;8.680;2023-03-23T00:57:06;22;20;
30342;PMS5003;17145;49.902;8.680;2023-03-23T00:59:33;16;15;
30342;PMS5003;17145;49.902;8.680;2023-03-23T01:02:01;15;14;
30342;PMS5003;17145;49.902;8.680;2023-03-23T01:04:28;15;12;
30342;PMS5003;17145;49.902;8.680;2023-03-23T01:06:55;12;12;
30342;PMS5003;17145;49.902;8.680;2023-03-23T01:09:23;16;15;
30342;PMS5003;17145;49.902;8.680;2023-03-23T01:11:51;14;14;
30342;PMS5003;17145;49.902;8.680;2023-03-23T01:14:20;13;13;
30342;PMS5003;17145;49.902;8.680;2023-03-23T01:16:47;13;13;
30342;PMS5003;17145;49.902;8.680;2023-03-23T01:19:15;10;10;
30342;PMS5003;17145;49.902;8.680;2023-03-23T01:21:42;10;9;
30342;PMS5003;17145;49.902;8.680;2023-03-23T01:24:10;8;7;
30342;PMS5003;17145;49.902;8.680;2023-03-23T01:26:37;9;8;
30342;PMS5003;17145;49.902;8.680;2023-03-23T01:29:05;8;8;
30342;PMS5003;17145;49.902;8.680;2023-03-23T01:31:32;10;8;
30342;PMS5003;17145;49.902;8.680;2023-03-23T01:34:00;9;9;
30342;PMS5003;17145;49.902;8.680;2023-03-23T01:36:29;17;16;
30342;PMS5003;17145;49.902;8.680;2023-03-23T01:38:57;13;13;
30342;PMS5003;17145;49.902;8.680;2023-03-23T01:41:25;10;10;
30342;PMS5003;17145;49.902;8.680;2023-03-23T01:43:54;8;8;
30342;PMS5003;17145;49.902;8.680;2023-03-23T01:46:23;12;9;
30342;PMS5003;17145;49.902;8.680;2023-03-23T01:48:52;7;7;
30342;PMS5003;17145;49.902;8.680;2023-03-23T01:51:21;6;6;
30342;PMS5003;17145;49.902;8.680;2023-03-23T01:53:50;7;6;
30342;PMS5003;17145;49.902;8.680;2023-03-23T01:56:22;8;7;
30342;PMS5003;17145;49.902;8.680;2023-03-23T01:58:51;8;8;
30342;PMS5003;17145;49.902;8.680;2023-03-23T02:01:20;8;7;
30342;PMS5003;17145;49.902;8.680;2023-03-23T02:03:49;7;7;
30342;PMS5003;17145;49.902;8.680;2023-03-23T02:06:18;7;6;
30342;PMS5003;17145;49.902;8.680;2023-03-23T02:08:46;6;6;
30342;PMS5003;17145;49.902;8.680;2023-03-23T02:11:17;7;6;
30342;PMS5003;17145;49.902;8.680;2023-03-23T02:13:45;7;6;
30342;PMS5003;17145;49.902;8.680;2023-03-23T02:16:19;6;6;
30342;PMS5003;17145;49.902;8.680;2023-03-23T02:18:57;6;6;
30342;PMS5003;17145;49.902;8.680;2023-03-23T02:21:44;8;8;
30342;PMS5003;17145;49.902;8.680;2023-03-23T02:24:30;10;8;
30342;PMS5003;17145;49.902;8.680;2023-03-23T02:27:17;10;10;
30342;PMS5003;17145;49.902;8.680;2023-03-23T02:30:07;11;11;
30342;PMS5003;17145;49.902;8.680;2023-03-23T02:32:46;10;10;
30342;PMS5003;17145;49.902;8.680;2023-03-23T02:35:28;13;11;
30342;PMS5003;17145;49.902;8.680;2023-03-23T02:38:00;11;11;
30342;PMS5003;17145;49.902;8.680;2023-03-23T02:40:33;14;14;
30342;PMS5003;17145;49.902;8.680;2023-03-23T02:43:06;21;13;
30342;PMS5003;17145;49.902;8.680;2023-03-23T02:45:37;15;14;
30342;PMS5003;17145;49.902;8.680;2023-03-23T02:48:05;16;15;
30342;PMS5003;17145;49.902;8.680;2023-03-23T02:50:34;13;13;
30342;PMS5003;17145;49.902;8.680;2023-03-23T02:53:05;10;10;
30342;PMS5003;17145;49.902;8.680;2023-03-23T02:55:36;14;13;
30342;PMS5003;17145;49.902;8.680;2023-03-23T02:58:08;15;13;
30342;PMS5003;17145;49.902;8.680;2023-03-23T03:00:36;13;12;
30342;PMS5003;17145;49.902;8.680;2023-03-23T03:03:04;12;11;
30342;PMS5003;17145;49.902;8.680;2023-03-23T03:05:40;13;11;
30342;PMS5003;17145;49.902;8.680;2023-03-23T03:08:15;9;9;
30342;PMS5003;17145;49.902;8.680;2023-03-23T03:10:52;9;9;
30342;PMS5003;17145;49.902;8.680;2023-03-23T03:13:30;9;9;
30342;PMS5003;17145;49.902;8.680;2023-03-23T03:16:05;6;6;
30342;PMS5003;17145;49.902;8.680;2023-03-23T03:18:42;11;10;
30342;PMS5003;17145;49.902;8.680;2023-03-23T03:21:14;8;8;
30342;PMS5003;17145;49.902;8.680;2023-03-23T03:23:46;9;9;
30342;PMS5003;17145;49.902;8.680;2023-03-23T03:26:15;8;8;
30342;PMS5003;17145;49.902;8.680;2023-03-23T03:28:43;12;9;
30342;PMS5003;17145;49.902;8.680;2023-03-23T03:31:13;11;9;
30342;PMS5003;17145;49.902;8.680;2023-03-23T03:33:44;9;8;
30342;PMS5003;17145;49.902;8.680;2023-03-23T03:36:14;8;8;
30342;PMS5003;17145;49.902;8.680;2023-03-23T03:38:46;9;9;
30342;PMS5003;17145;49.902;8.680;2023-03-23T03:41:15;11;11;
30342;PMS5003;17145;49.902;8.680;2023-03-23T03:43:44;13;11;
30342;PMS5003;17145;49.902;8.680;2023-03-23T03:46:12;13;12;
30342;PMS5003;17145;49.902;8.680;2023-03-23T03:48:39;17;14;
30342;PMS5003;17145;49.902;8.680;2023-03-23T03:51:07;12;12;
30342;PMS5003;17145;49.902;8.680;2023-03-23T03:53:34;11;11;
30342;PMS5003;17145;49.902;8.680;2023-03-23T03:56:01;12;12;
30342;PMS5003;17145;49.902;8.680;2023-03-23T03:58:29;10;10;
30342;PMS5003;17145;49.902;8.680;2023-03-23T04:00:57;11;11;
30342;PMS5003;17145;49.902;8.680;2023-03-23T04:03:26;11;10;
30342;PMS5003;17145;49.902;8.680;2023-03-23T04:05:54;12;12;
30342;PMS5003;17145;49.902;8.680;2023-03-23T04:08:22;11;10;
30342;PMS5003;17145;49.902;8.680;2023-03-23T04:10:50;10;10;
30342;PMS5003;17145;49.902;8.680;2023-03-23T04:13:17;11;10;
30342;PMS5003;17145;49.902;8.680;2023-03-23T04:15:45;8;8;
30342;PMS5003;17145;49.902;8.680;2023-03-23T04:18:13;11;10;
30342;PMS5003;17145;49.902;8.680;2023-03-23T04:20:42;7;7;
30342;PMS5003;17145;49.902;8.680;2023-03-23T04:23:11;8;7;
30342;PMS5003;17145;49.902;8.680;2023-03-23T04:25:39;10;7;
30342;PMS5003;17145;49.902;8.680;2023-03-23T04:28:06;7;6;
30342;PMS5003;17145;49.902;8.680;2023-03-23T04:30:34;10;6;
30342;PMS5003;17145;49.902;8.680;2023-03-23T04:33:01;5;5;
30342;PMS5003;17145;49.902;8.680;2023-03-23T04:35:29;4;4;
30342;PMS5003;17145;49.902;8.680;2023-03-23T04:37:57;6;6;
30342;PMS5003;17145;49.902;8.680;2023-03-23T04:40:24;9;7;
30342;PMS5003;17145;49.902;8.680;2023-03-23T04:42:52;9;7;
30342;PMS5003;17145;49.902;8.680;2023-03-23T04:45:20;7;7;
30342;PMS5003;17145;49.902;8.680;2023-03-23T04:47:48;6;6;
30342;PMS5003;17145;49.902;8.680;2023-03-23T04:50:16;9;5;
30342;PMS5003;17145;49.902;8.680;2023-03-23T04:52:44;9;7;
30342;PMS5003;17145;49.902;8.680;2023-03-23T04:55:12;9;7;
30342;PMS5003;17145;49.902;8.680;2023-03-23T04:57:40;11;10;
30342;PMS5003;17145;49.902;8.680;2023-03-23T05:00:08;9;9;
30342;PMS5003;17145;49.902;8.680;2023-03-23T05:02:38;9;9;
30342;PMS5003;17145;49.902;8.680;2023-03-23T05:05:05;6;6;
30342;PMS5003;17145;49.902;8.680;2023-03-23T05:07:34;7;4;
30342;PMS5003;17145;49.902;8.680;2023-03-23T05:10:03;5;5;
30342;PMS5003;17145;49.902;8.680;2023-03-23T05:12:31;7;7;
30342;PMS5003;17145;49.902;8.680;2023-03-23T05:14:58;7;6;
30342;PMS5003;17145;49.902;8.680;2023-03-23T05:17:26;5;4;
30342;PMS5003;17145;49.902;8.680;2023-03-23T05:19:53;6;6;
30342;PMS5003;17145;49.902;8.680;2023-03-23T05:22:21;6;5;
30342;PMS5003;17145;49.902;8.680;2023-03-23T05:24:49;9;6;
30342;PMS5003;17145;49.902;8.680;2023-03-23T05:27:17;8;6;
30342;PMS5003;17145;49.902;8.680;2023-03-23T05:29:45;6;6;
30342;PMS5003;17145;49.902;8.680;2023-03-23T05:32:13;6;6;
30342;PMS5003;17145;49.902;8.680;2023-03-23T05:34:40;5;5;
30342;PMS5003;17145;49.902;8.680;2023-03-23T05:37:10;8;6;
30342;PMS5003;17145;49.902;8.680;2023-03-23T05:39:38;5;5;
30342;PMS5003;17145;49.902;8.680;2023-03-23T05:42:06;5;5;
30342;PMS5003;17145;49.902;8.680;2023-03-23T05:44:33;4;4;
30342;PMS5003;17145;49.902;8.680;2023-03-23T05:47:00;4;3;
30342;PMS5003;17145;49.902;8.680;2023-03-23T05:49:29;9;6;
30342;PMS5003;17145;49.902;8.680;2023-03-23T05:51:57;6;6;
30342;PMS5003;17145;49.902;8.680;2023-03-23T05:54:24;6;6;
30342;PMS5003;17145;49.902;8.680;2023-03-23T05:56:52;6;6;
30342;PMS5003;17145;49.902;8.680;2023-03-23T05:59:20;8;6;
30342;PMS5003;17145;49.902;8.680;2023-03-23T06:01:47;4;4;
30342;PMS5003;17145;49.902;8.680;2023-03-23T06:04:14;5;5;
30342;PMS5003;17145;49.902;8.680;2023-03-23T06:06:42;5;5;
30342;PMS5003;17145;49.902;8.680;2023-03-23T06:09:09;9;8;
30342;PMS5003;17145;49.902;8.680;2023-03-23T06:11:37;8;6;
30342;PMS5003;17145;49.902;8.680;2023-03-23T06:14:05;10;6;
30342;PMS5003;17145;49.902;8.680;2023-03-23T06:16:32;9;9;
30342;PMS5003;17145;49.902;8.680;2023-03-23T06:18:59;5;4;
30342;PMS5003;17145;49.902;8.680;2023-03-23T06:21:27;5;5;
30342;PMS5003;17145;49.902;8.680;2023-03-23T06:23:55;6;6;
30342;PMS5003;17145;49.902;8.680;2023-03-23T06:26:23;8;6;
30342;PMS5003;17145;49.902;8.680;2023-03-23T06:28:55;6;6;
30342;PMS5003;17145;49.902;8.680;2023-03-23T06:31:23;6;5;
30342;PMS5003;17145;49.902;8.680;2023-03-23T06:33:51;8;7;
30342;PMS5003;17145;49.902;8.680;2023-03-23T06:36:19;7;5;
30342;PMS5003;17145;49.902;8.680;2023-03-23T06:38:46;5;4;
30342;PMS5003;17145;49.902;8.680;2023-03-23T06:41:13;5;5;
30342;PMS5003;17145;49.902;8.680;2023-03-23T06:43:41;11;9;
30342;PMS5003;17145;49.902;8.680;2023-03-23T06:46:08;10;10;
30342;PMS5003;17145;49.902;8.680;2023-03-23T06:48:36;10;10;
30342;PMS5003;17145;49.902;8.680;2023-03-23T06:51:03;9;9;
30342;PMS5003;17145;49.902;8.680;2023-03-23T06:53:32;8;8;
30342;PMS5003;17145;49.902;8.680;2023-03-23T06:56:01;12;11;
30342;PMS5003;17145;49.902;8.680;2023-03-23T06:58:29;15;12;
30342;PMS5003;17145;49.902;8.680;2023-03-23T07:00:57;16;11;
30342;PMS5003;17145;49.902;8.680;2023-03-23T07:03:25;17;16;
30342;PMS5003;17145;49.902;8.680;2023-03-23T07:05:53;17;17;
30342;PMS5003;17145;49.902;8.680;2023-03-23T07:08:21;16;15;
30342;PMS5003;17145;49.902;8.680;2023-03-23T07:10:50;17;16;
30342;PMS5003;17145;49.902;8.680;2023-03-23T07:13:17;17;15;
30342;PMS5003;17145;49.902;8.680;2023-03-23T07:15:45;12;11;
30342;PMS5003;17145;49.902;8.680;2023-03-23T07:18:14;15;14;
30342;PMS5003;17145;49.902;8.680;2023-03-23T07:20:41;14;14;
30342;PMS5003;17145;49.902;8.680;2023-03-23T07:23:09;11;11;
30342;PMS5003;17145;49.902;8.680;2023-03-23T07:25:36;10;9;
30342;PMS5003;17145;49.902;8.680;2023-03-23T07:28:04;8;8;
30342;PMS5003;17145;49.902;8.680;2023-03-23T07:30:31;8;8;
30342;PMS5003;17145;49.902;8.680;2023-03-23T07:33:03;10;10;
30342;PMS5003;17145;49.902;8.680;2023-03-23T07:35:31;8;8;
30342;PMS5003;17145;49.902;8.680;2023-03-23T07:37:59;8;8;
30342;PMS5003;17145;49.902;8.680;2023-03-23T07:40:27;10;8;
30342;PMS5003;17145;49.902;8.680;2023-03-23T07:42:56;8;8;
30342;PMS5003;17145;49.902;8.680;2023-03-23T07:45:24;8;8;
30342;PMS5003;17145;49.902;8.680;2023-03-23T07:47:51;8;8;
30342;PMS5003;17145;49.902;8.680;2023-03-23T07:50:19;8;7;
30342;PMS5003;17145;49.902;8.680;2023-03-23T07:52:47;7;7;
30342;PMS5003;17145;49.902;8.680;2023-03-23T07:55:14;8;8;
30342;PMS5003;17145;49.902;8.680;2023-03-23T07:57:41;8;8;
30342;PMS5003;17145;49.902;8.680;2023-03-23T08:00:10;8;8;
30342;PMS5003;17145;49.902;8.680;2023-03-23T08:02:38;8;8;
30342;PMS5003;17145;49.902;8.680;2023-03-23T08:05:05;10;9;
30342;PMS5003;17145;49.902;8.680;2023-03-23T08:07:33;10;9;
30342;PMS5003;17145;49.902;8.680;2023-03-23T08:10:01;10;9;
30342;PMS5003;17145;49.902;8.680;2023-03-23T08:12:28;12;10;
30342;PMS5003;17145;49.902;8.680;2023-03-23T08:14:56;16;15;
30342;PMS5003;17145;49.902;8.680;2023-03-23T08:17:23;8;7;
30342;PMS5003;17145;49.902;8.680;2023-03-23T08:19:50;19;19;
30342;PMS5003;17145;49.902;8.680;2023-03-23T08:22:18;9;8;
30342;PMS5003;17145;49.902;8.680;2023-03-23T08:24:45;12;11;
30342;PMS5003;17145;49.902;8.680;2023-03-23T08:27:12;8;8;
30342;PMS5003;17145;49.902;8.680;2023-03-23T08:29:40;9;9;
30342;PMS5003;17145;49.902;8.680;2023-03-23T08:32:07;7;5;
30342;PMS5003;17145;49.902;8.680;2023-03-23T08:34:35;9;7;
30342;PMS5003;17145;49.902;8.680;2023-03-23T08:37:02;7;7;
30342;PMS5003;17145;49.902;8.680;2023-03-23T08:39:30;9;8;
30342;PMS5003;17145;49.902;8.680;2023-03-23T08:41:57;8;7;
30342;PMS5003;17145;49.902;8.680;2023-03-23T08:44:24;8;8;
30342;PMS5003;17145;49.902;8.680;2023-03-23T08:46:52;8;8;
30342;PMS5003;17145;49.902;8.680;2023-03-23T08:49:19;14;11;
30342;PMS5003;17145;49.902;8.680;2023-03-23T08:51:47;8;7;
30342;PMS5003;17145;49.902;8.680;2023-03-23T08:54:14;9;9;
30342;PMS5003;17145;49.902;8.680;2023-03-23T08:56:42;8;8;
30342;PMS5003;17145;49.902;8.680;2023-03-23T08:59:09;9;8;
30342;PMS5003;17145;49.902;8.680;2023-03-23T09:01:37;8;7;
30342;PMS5003;17145;49.902;8.680;2023-03-23T09:04:04;11;9;
30342;PMS5003;17145;49.902;8.680;2023-03-23T09:06:32;11;8;
30342;PMS5003;17145;49.902;8.680;2023-03-23T09:08:59;8;7;
30342;PMS5003;17145;49.902;8.680;2023-03-23T09:11:27;8;6;
30342;PMS5003;17145;49.902;8.680;2023-03-23T09:13:54;8;8;
30342;PMS5003;17145;49.902;8.680;2023-03-23T09:16:22;9;8;
30342;PMS5003;17145;49.902;8.680;2023-03-23T09:18:49;9;9;
30342;PMS5003;17145;49.902;8.680;2023-03-23T09:21:16;8;8;
30342;PMS5003;17145;49.902;8.680;2023-03-23T09:23:44;8;8;
30342;PMS5003;17145;49.902;8.680;2023-03-23T09:26:11;16;12;
30342;PMS5003;17145;49.902;8.680;2023-03-23T09:28:38;12;10;
30342;PMS5003;17145;49.902;8.680;2023-03-23T09:31:06;8;8;
30342;PMS5003;17145;49.902;8.680;2023-03-23T09:33:34;10;9;
30342;PMS5003;17145;49.902;8.680;2023-03-23T09:36:01;9;9;
30342;PMS5003;17145;49.902;8.680;2023-03-23T09:38:29;14;11;
30342;PMS5003;17145;49.902;8.680;2023-03-23T09:40:58;10;9;
30342;PMS5003;17145;49.902;8.680;2023-03-23T09:43:38;11;11;
30342;PMS5003;17145;49.902;8.680;2023-03-23T09:46:18;8;8;
30342;PMS5003;17145;49.902;8.680;2023-03-23T09:48:57;11;10;
30342;PMS5003;17145;49.902;8.680;2023-03-23T09:51:31;10;10;
30342;PMS5003;17145;49.902;8.680;2023-03-23T09:54:09;9;8;
30342;PMS5003;17145;49.902;8.680;2023-03-23T09:56:39;11;9;
30342;PMS5003;17145;49.902;8.680;2023-03-23T09:59:10;12;11;
30342;PMS5003;17145;49.902;8.680;2023-03-23T10:01:42;8;8;
30342;PMS5003;17145;49.902;8.680;2023-03-23T10:04:13;8;8;
30342;PMS5003;17145;49.902;8.680;2023-03-23T10:06:49;11;9;
30342;PMS5003;17145;49.902;8.680;2023-03-23T10:09:17;10;10;
30342;PMS5003;17145;49.902;8.680;2023-03-23T10:11:49;8;8;
30342;PMS5003;17145;49.902;8.680;2023-03-23T10:14:26;10;9;
30342;PMS5003;17145;49.902;8.680;2023-03-23T10:17:16;9;9;
30342;PMS5003;17145;49.902;8.680;2023-03-23T10:19:41;10;10;
30342;PMS5003;17145;49.902;8.680;2023-03-23T10:22:15;13;9;
30342;PMS5003;17145;49.902;8.680;2023-03-23T10:24:48;8;8;
30342;PMS5003;17145;49.902;8.680;2023-03-23T10:27:19;9;9;
30342;PMS5003;17145;49.902;8.680;2023-03-23T10:29:55;10;9;
30342;PMS5003;17145;49.902;8.680;2023-03-23T10:32:39;8;8;
30342;PMS5003;17145;49.902;8.680;2023-03-23T10:35:11;11;9;
30342;PMS5003;17145;49.902;8.680;2023-03-23T10:37:43;9;9;
30342;PMS5003;17145;49.902;8.680;2023-03-23T10:40:17;9;9;
30342;PMS5003;17145;49.902;8.680;2023-03-23T10:42:47;10;9;
30342;PMS5003;17145;49.902;8.680;2023-03-23T10:45:16;9;9;
30342;PMS5003;17145;49.902;8.680;2023-03-23T10:47:48;8;8;
30342;PMS5003;17145;49.902;8.680;2023-03-23T10:50:22;9;9;
30342;PMS5003;17145;49.902;8.680;2023-03-23T10:52:53;9;7;
30342;PMS5003;17145;49.902;8.680;2023-03-23T10:55:25;7;7;
30342;PMS5003;17145;49.902;8.680;2023-03-23T10:58:04;10;9;
30342;PMS5003;17145;49.902;8.680;2023-03-23T11:00:40;9;8;
30342;PMS5003;17145;49.902;8.680;2023-03-23T11:05:50;7;7;
30342;PMS5003;17145;49.902;8.680;2023-03-23T11:08:20;10;9;
30342;PMS5003;17145;49.902;8.680;2023-03-23T11:10:50;8;8;
30342;PMS5003;17145;49.902;8.680;2023-03-23T11:13:20;9;8;
30342;PMS5003;17145;49.902;8.680;2023-03-23T11:15:49;9;9;
30342;PMS5003;17145;49.902;8.680;2023-03-23T11:18:19;11;10;
30342;PMS5003;17145;49.902;8.680;2023-03-23T11:20:49;9;9;
30342;PMS5003;17145;49.902;8.680;2023-03-23T11:23:20;10;10;
30342;PMS5003;17145;49.902;8.680;2023-03-23T11:25:52;10;10;
30342;PMS5003;17145;49.902;8.680;2023-03-23T11:28:25;9;8;
30342;PMS5003;17145;49.902;8.680;2023-03-23T11:30:55;9;9;
30342;PMS5003;17145;49.902;8.680;2023-03-23T11:33:25;10;10;
30342;PMS5003;17145;49.902;8.680;2023-03-23T11:35:56;10;10;
30342;PMS5003;17145;49.902;8.680;2023-03-23T11:38:24;9;9;
30342;PMS5003;17145;49.902;8.680;2023-03-23T11:40:52;10;9;
30342;PMS5003;17145;49.902;8.680;2023-03-23T11:43:20;10;9;
30342;PMS5003;17145;49.902;8.680;2023-03-23T11:45:50;9;9;
30342;PMS5003;17145;49.902;8.680;2023-03-23T11:48:26;11;10;
30342;PMS5003;17145;49.902;8.680;2023-03-23T11:51:01;10;10;
30342;PMS5003;17145;49.902;8.680;2023-03-23T11:53:37;10;9;
30342;PMS5003;17145;49.902;8.680;2023-03-23T11:56:14;10;10;
30342;PMS5003;17145;49.902;8.680;2023-03-23T11:58:49;12;10;
30342;PMS5003;17145;49.902;8.680;2023-03-23T12:01:21;9;9;
30342;PMS5003;17145;49.902;8.680;2023-03-23T12:03:59;10;9;
30342;PMS5003;17145;49.902;8.680;2023-03-23T12:06:37;8;8;
30342;PMS5003;17145;49.902;8.680;2023-03-23T12:09:15;10;10;
30342;PMS5003;17145;49.902;8.680;2023-03-23T12:11:56;9;9;
30342;PMS5003;17145;49.902;8.680;2023-03-23T12:14:32;10;10;
30342;PMS5003;17145;49.902;8.680;2023-03-23T12:17:09;9;9;
30342;PMS5003;17145;49.902;8.680;2023-03-23T12:19:48;14;11;
30342;PMS5003;17145;49.902;8.680;2023-03-23T12:22:31;10;9;
30342;PMS5003;17145;49.902;8.680;2023-03-23T12:27:46;9;9;
30342;PMS5003;17145;49.902;8.680;2023-03-23T12:30:25;8;8;
30342;PMS5003;17145;49.902;8.680;2023-03-23T12:33:02;11;11;
30342;PMS5003;17145;49.902;8.680;2023-03-23T12:35:41;11;10;
30342;PMS5003;17145;49.902;8.680;2023-03-23T12:38:21;9;9;
30342;PMS5003;17145;49.902;8.680;2023-03-23T12:41:02;9;9;
30342;PMS5003;17145;49.902;8.680;2023-03-23T12:43:39;13;9;
30342;PMS5003;17145;49.902;8.680;2023-03-23T12:46:24;8;8;
30342;PMS5003;17145;49.902;8.680;2023-03-23T12:49:02;9;9;
30342;PMS5003;17145;49.902;8.680;2023-03-23T12:51:35;9;8;
30342;PMS5003;17145;49.902;8.680;2023-03-23T12:54:10;10;10;
30342;PMS5003;17145;49.902;8.680;2023-03-23T12:56:43;11;11;
30342;PMS5003;17145;49.902;8.680;2023-03-23T12:59:19;9;9;
30342;PMS5003;17145;49.902;8.680;2023-03-23T13:01:52;10;10;
30342;PMS5003;17145;49.902;8.680;2023-03-23T13:04:27;9;9;
30342;PMS5003;17145;49.902;8.680;2023-03-23T13:06:58;11;10;
30342;PMS5003;17145;49.902;8.680;2023-03-23T13:09:30;10;9;
30342;PMS5003;17145;49.902;8.680;2023-03-23T13:12:08;10;10;
30342;PMS5003;17145;49.902;8.680;2023-03-23T13:14:40;10;9;
30342;PMS5003;17145;49.902;8.680;2023-03-23T13:17:20;11;10;
30342;PMS5003;17145;49.902;8.680;2023-03-23T13:19:59;9;8;
30342;PMS5003;17145;49.902;8.680;2023-03-23T13:22:37;9;9;
30342;PMS5003;17145;49.902;8.680;2023-03-23T13:25:13;10;9;
30342;PMS5003;17145;49.902;8.680;2023-03-23T13:27:43;9;9;
30342;PMS5003;17145;49.902;8.680;2023-03-23T13:32:45;10;10;
30342;PMS5003;17145;49.902;8.680;2023-03-23T13:35:13;9;9;
30342;PMS5003;17145;49.902;8.680;2023-03-23T13:37:44;10;10;
30342;PMS5003;17145;49.902;8.680;2023-03-23T13:40:18;9;9;
30342;PMS5003;17145;49.902;8.680;2023-03-23T13:42:52;9;8;
30342;PMS5003;17145;49.902;8.680;2023-03-23T13:45:22;9;9;
30342;PMS5003;17145;49.902;8.680;2023-03-23T13:50:30;11;10;
30342;PMS5003;17145;49.902;8.680;2023-03-23T13:55:41;9;9;
30342;PMS5003;17145;49.902;8.680;2023-03-23T14:01:00;9;9;
30342;PMS5003;17145;49.902;8.680;2023-03-23T14:03:35;9;9;
30342;PMS5003;17145;49.902;8.680;2023-03-23T14:06:06;8;8;
30342;PMS5003;17145;49.902;8.680;2023-03-23T14:08:40;8;8;
30342;PMS5003;17145;49.902;8.680;2023-03-23T14:11:11;11;11;
30342;PMS5003;17145;49.902;8.680;2023-03-23T14:13:43;10;8;
30342;PMS5003;17145;49.902;8.680;2023-03-23T14:16:14;9;9;
30342;PMS5003;17145;49.902;8.680;2023-03-23T14:18:51;9;9;
30342;PMS5003;17145;49.902;8.680;2023-03-23T14:21:22;10;10;
30342;PMS5003;17145;49.902;8.680;2023-03-23T14:23:59;9;8;
30342;PMS5003;17145;49.902;8.680;2023-03-23T14:26:28;10;10;
30342;PMS5003;17145;49.902;8.680;2023-03-23T14:28:55;14;10;
30342;PMS5003;17145;49.902;8.680;2023-03-23T14:31:23;11;9;
30342;PMS5003;17145;49.902;8.680;2023-03-23T14:33:53;10;10;
30342;PMS5003;17145;49.902;8.680;2023-03-23T14:36:23;10;9;
30342;PMS5003;17145;49.902;8.680;2023-03-23T14:38:56;10;9;
30342;PMS5003;17145;49.902;8.680;2023-03-23T14:41:29;10;10;
30342;PMS5003;17145;49.902;8.680;2023-03-23T14:43:58;11;11;
30342;PMS5003;17145;49.902;8.680;2023-03-23T14:46:29;13;11;
30342;PMS5003;17145;49.902;8.680;2023-03-23T14:48:59;9;9;
30342;PMS5003;17145;49.902;8.680;2023-03-23T14:51:28;12;10;
30342;PMS5003;17145;49.902;8.680;2023-03-23T14:53:57;9;9;
30342;PMS5003;17145;49.902;8.680;2023-03-23T14:56:31;10;9;
30342;PMS5003;17145;49.902;8.680;2023-03-23T14:59:03;10;9;
30342;PMS5003;17145;49.902;8.680;2023-03-23T15:01:32;11;8;
30342;PMS5003;17145;49.902;8.680;2023-03-23T15:04:03;10;9;
30342;PMS5003;17145;49.902;8.680;2023-03-23T15:06:35;10;10;
30342;PMS5003;17145;49.902;8.680;2023-03-23T15:09:06;11;10;
30342;PMS5003;17145;49.902;8.680;2023-03-23T15:11:38;10;9;
30342;PMS5003;17145;49.902;8.680;2023-03-23T15:14:09;11;11;
30342;PMS5003;17145;49.902;8.680;2023-03-23T15:16:44;9;9;
30342;PMS5003;17145;49.902;8.680;2023-03-23T15:19:15;12;10;
30342;PMS5003;17145;49.902;8.680;2023-03-23T15:21:47;12;10;
30342;PMS5003;17145;49.902;8.680;2023-03-23T15:24:19;12;10;
30342;PMS5003;17145;49.902;8.680;2023-03-23T15:26:52;10;10;
30342;PMS5003;17145;49.902;8.680;2023-03-23T15:29:20;12;10;
30342;PMS5003;17145;49.902;8.680;2023-03-23T15:31:50;9;9;
30342;PMS5003;17145;49.902;8.680;2023-03-23T15:34:24;12;10;
30342;PMS5003;17145;49.902;8.680;2023-03-23T15:36:57;12;10;
30342;PMS5003;17145;49.902;8.680;2023-03-23T15:39:28;12;9;
30342;PMS5003;17145;49.902;8.680;2023-03-23T15:41:57;12;10;
30342;PMS5003;17145;49.902;8.680;2023-03-23T15:44:28;12;10;
30342;PMS5003;17145;49.902;8.680;2023-03-23T15:47:03;10;10;
30342;PMS5003;17145;49.902;8.680;2023-03-23T15:49:35;10;10;
30342;PMS5003;17145;49.902;8.680;2023-03-23T15:52:02;10;9;
30342;PMS5003;17145;49.902;8.680;2023-03-23T15:54:30;8;8;
30342;PMS5003;17145;49.902;8.680;2023-03-23T15:56:58;9;9;
30342;PMS5003;17145;49.902;8.680;2023-03-23T15:59:25;8;8;
30342;PMS5003;17145;49.902;8.680;2023-03-23T16:01:53;9;8;
30342;PMS5003;17145;49.902;8.680;2023-03-23T16:04:21;9;8;
30342;PMS5003;17145;49.902;8.680;2023-03-23T16:06:49;7;7;
30342;PMS5003;17145;49.902;8.680;2023-03-23T16:09:19;8;7;
30342;PMS5003;17145;49.902;8.680;2023-03-23T16:11:46;9;9;
30342;PMS5003;17145;49.902;8.680;2023-03-23T16:14:14;8;7;
30342;PMS5003;17145;49.902;8.680;2023-03-23T16:16:42;10;10;
30342;PMS5003;17145;49.902;8.680;2023-03-23T16:19:12;11;11;
30342;PMS5003;17145;49.902;8.680;2023-03-23T16:21:40;7;7;
30342;PMS5003;17145;49.902;8.680;2023-03-23T16:24:08;7;7;
30342;PMS5003;17145;49.902;8.680;2023-03-23T16:26:36;7;7;
30342;PMS5003;17145;49.902;8.680;2023-03-23T16:29:07;7;7;
30342;PMS5003;17145;49.902;8.680;2023-03-23T16:31:36;6;6;
30342;PMS5003;17145;49.902;8.680;2023-03-23T16:34:04;9;8;
30342;PMS5003;17145;49.902;8.680;2023-03-23T16:36:31;8;8;
30342;PMS5003;17145;49.902;8.680;2023-03-23T16:39:00;20;9;
30342;PMS5003;17145;49.902;8.680;2023-03-23T16:41:27;8;8;
30342;PMS5003;17145;49.902;8.680;2023-03-23T16:43:55;8;8;
30342;PMS5003;17145;49.902;8.680;2023-03-23T16:46:22;8;8;
30342;PMS5003;17145;49.902;8.680;2023-03-23T16:48:49;8;8;
30342;PMS5003;17145;49.902;8.680;2023-03-23T16:51:17;11;8;
30342;PMS5003;17145;49.902;8.680;2023-03-23T16:53:44;8;8;
30342;PMS5003;17145;49.902;8.680;2023-03-23T16:56:12;9;8;
30342;PMS5003;17145;49.902;8.680;2023-03-23T16:58:39;9;9;
30342;PMS5003;17145;49.902;8.680;2023-03-23T17:01:07;7;7;
30342;PMS5003;17145;49.902;8.680;2023-03-23T17:03:34;8;8;
30342;PMS5003;17145;49.902;8.680;2023-03-23T17:06:01;9;9;
30342;PMS5003;17145;49.902;8.680;2023-03-23T17:08:29;12;11;
30342;PMS5003;17145;49.902;8.680;2023-03-23T17:10:57;11;9;